LYNI/INI METAR and TAF weather

Enter ICAO airport designator
Station Type Date Time Source
LYNI METAR 2021/03/06 05:30 UTC NOAA

LYNI 060530Z 33027KT 9999 FEW010 BKN050 02/M01 Q1024 NOSIG


Station Type Date Time Source
LYNI Decoded METAR 2021/03/06 05:30 UTC NOAA

Nis, Serbia and Montenegro (LYNI) 43-20N 021-54E 202M
Mar 06, 2021 - 12:30 AM EST / 2021.03.06 0530 UTC
Wind: from the NNW (330 degrees) at 31 MPH (27 KT):0
Visibility: greater than 7 mile(s):0
Sky conditions: mostly cloudy
Temperature: 35 F (2 C)
Windchill: 21 F (-6 C):1
Dew Point: 30 F (-1 C)
Relative Humidity: 80%
Pressure (altimeter): 30.24 in. Hg (1024 hPa)
ob: LYNI 060530Z 33027KT 9999 FEW010 BKN050 02/M01 Q1024 NOSIG
cycle: 5

Station Type Date Time Source
LYNI TAF 2021/03/06 06:21 UTC NOAA

TAF LYNI 060500Z 0606/0706 32015G25KT 9999 BKN050 TX06/0612Z TNM02/0705Z
TEMPO 0606/0614 32025G38KT
BECMG 0616/0618 33010KT

Example: see airport list